sensor_id;sensor_type;location;lat;lon;timestamp;pressure;altitude;pressure_sealevel;temperature;humidity
14383;BME280;7275;50.328;8.720;2022-09-09T00:01:02;99170.25;;;22.09;46.84
14383;BME280;7275;50.328;8.720;2022-09-09T00:03:35;99164.88;;;22.09;46.94
14383;BME280;7275;50.328;8.720;2022-09-09T00:06:09;99167.56;;;22.09;46.95
14383;BME280;7275;50.328;8.720;2022-09-09T00:08:52;99167.88;;;22.06;47.10
14383;BME280;7275;50.328;8.720;2022-09-09T00:11:24;99178.19;;;22.01;46.88
14383;BME280;7275;50.328;8.720;2022-09-09T00:13:58;99175.66;;;22.00;47.07
14383;BME280;7275;50.328;8.720;2022-09-09T00:16:32;99167.03;;;21.96;47.17
14383;BME280;7275;50.328;8.720;2022-09-09T00:19:07;99161.06;;;21.93;47.73
14383;BME280;7275;50.328;8.720;2022-09-09T00:21:36;99163.75;;;21.93;47.63
14383;BME280;7275;50.328;8.720;2022-09-09T00:24:10;99163.75;;;21.93;47.83
14383;BME280;7275;50.328;8.720;2022-09-09T00:26:42;99158.25;;;21.94;47.78
14383;BME280;7275;50.328;8.720;2022-09-09T00:29:19;99163.19;;;21.99;47.87
14383;BME280;7275;50.328;8.720;2022-09-09T00:31:54;99154.13;;;22.00;47.61
14383;BME280;7275;50.328;8.720;2022-09-09T00:39:29;99148.75;;;22.00;48.14
14383;BME280;7275;50.328;8.720;2022-09-09T00:42:12;99147.03;;;21.99;47.86
14383;BME280;7275;50.328;8.720;2022-09-09T00:44:51;99147.19;;;21.97;47.98
14383;BME280;7275;50.328;8.720;2022-09-09T00:47:40;99141.25;;;21.94;47.63
14383;BME280;7275;50.328;8.720;2022-09-09T00:50:18;99148.59;;;21.92;47.92
14383;BME280;7275;50.328;8.720;2022-09-09T00:52:59;99147.91;;;21.90;48.12
14383;BME280;7275;50.328;8.720;2022-09-09T00:55:36;99156.09;;;21.88;48.13
14383;BME280;7275;50.328;8.720;2022-09-09T00:58:08;99153.84;;;21.84;48.16
14383;BME280;7275;50.328;8.720;2022-09-09T01:00:42;99165.97;;;21.78;48.22
14383;BME280;7275;50.328;8.720;2022-09-09T01:03:19;99162.00;;;21.73;48.61
14383;BME280;7275;50.328;8.720;2022-09-09T01:05:56;99161.72;;;21.66;48.58
14383;BME280;7275;50.328;8.720;2022-09-09T01:09:00;99161.16;;;21.63;48.41
14383;BME280;7275;50.328;8.720;2022-09-09T01:11:35;99157.88;;;21.59;48.41
14383;BME280;7275;50.328;8.720;2022-09-09T01:14:13;99157.47;;;21.54;48.64
14383;BME280;7275;50.328;8.720;2022-09-09T01:16:45;99159.72;;;21.49;48.51
14383;BME280;7275;50.328;8.720;2022-09-09T01:19:18;99161.84;;;21.45;48.62
14383;BME280;7275;50.328;8.720;2022-09-09T01:21:55;99159.28;;;21.44;48.88
14383;BME280;7275;50.328;8.720;2022-09-09T01:24:35;99172.03;;;21.42;48.85
14383;BME280;7275;50.328;8.720;2022-09-09T01:27:09;99168.03;;;21.36;49.09
14383;BME280;7275;50.328;8.720;2022-09-09T01:29:37;99173.00;;;21.31;49.01
14383;BME280;7275;50.328;8.720;2022-09-09T01:32:37;99180.59;;;21.26;49.17
14383;BME280;7275;50.328;8.720;2022-09-09T01:35:08;99172.94;;;21.22;49.13
14383;BME280;7275;50.328;8.720;2022-09-09T01:37:37;99171.53;;;21.18;49.22
14383;BME280;7275;50.328;8.720;2022-09-09T01:40:05;99170.94;;;21.14;49.51
14383;BME280;7275;50.328;8.720;2022-09-09T01:42:36;99174.59;;;21.13;49.49
14383;BME280;7275;50.328;8.720;2022-09-09T01:45:04;99163.75;;;21.15;49.37
14383;BME280;7275;50.328;8.720;2022-09-09T01:47:32;99161.88;;;21.15;49.57
14383;BME280;7275;50.328;8.720;2022-09-09T01:50:01;99166.44;;;21.15;49.57
14383;BME280;7275;50.328;8.720;2022-09-09T01:52:29;99160.19;;;21.14;49.56
14383;BME280;7275;50.328;8.720;2022-09-09T01:54:57;99163.75;;;21.15;49.32
14383;BME280;7275;50.328;8.720;2022-09-09T01:57:27;99164.16;;;21.20;49.42
14383;BME280;7275;50.328;8.720;2022-09-09T02:00:05;99159.66;;;21.20;49.43
14383;BME280;7275;50.328;8.720;2022-09-09T02:02:37;99157.66;;;21.22;49.39
14383;BME280;7275;50.328;8.720;2022-09-09T02:05:22;99157.09;;;21.19;49.34
14383;BME280;7275;50.328;8.720;2022-09-09T02:08:00;99161.63;;;21.18;49.30
14383;BME280;7275;50.328;8.720;2022-09-09T02:10:32;99158.94;;;21.18;49.35
14383;BME280;7275;50.328;8.720;2022-09-09T02:13:07;99161.63;;;21.18;49.48
14383;BME280;7275;50.328;8.720;2022-09-09T02:15:43;99159.09;;;21.17;49.35
14383;BME280;7275;50.328;8.720;2022-09-09T02:18:14;99168.13;;;21.16;49.53
14383;BME280;7275;50.328;8.720;2022-09-09T02:20:45;99163.34;;;21.19;49.66
14383;BME280;7275;50.328;8.720;2022-09-09T02:23:14;99164.16;;;21.20;49.58
14383;BME280;7275;50.328;8.720;2022-09-09T02:25:42;99156.00;;;21.21;49.64
14383;BME280;7275;50.328;8.720;2022-09-09T02:28:14;99154.13;;;21.22;49.66
14383;BME280;7275;50.328;8.720;2022-09-09T02:30:45;99144.09;;;21.24;49.47
14383;BME280;7275;50.328;8.720;2022-09-09T02:33:14;99148.34;;;21.26;49.77
14383;BME280;7275;50.328;8.720;2022-09-09T02:35:43;99149.06;;;21.28;49.66
14383;BME280;7275;50.328;8.720;2022-09-09T02:38:13;99154.28;;;21.30;49.65
14383;BME280;7275;50.328;8.720;2022-09-09T02:40:42;99159.41;;;21.33;49.81
14383;BME280;7275;50.328;8.720;2022-09-09T02:43:09;99166.50;;;21.34;49.68
14383;BME280;7275;50.328;8.720;2022-09-09T02:45:41;99163.66;;;21.35;49.69
14383;BME280;7275;50.328;8.720;2022-09-09T02:48:16;99159.13;;;21.36;49.92
14383;BME280;7275;50.328;8.720;2022-09-09T02:50:53;99157.16;;;21.38;49.75
14383;BME280;7275;50.328;8.720;2022-09-09T02:53:26;99152.59;;;21.38;49.69
14383;BME280;7275;50.328;8.720;2022-09-09T02:56:01;99151.63;;;21.39;49.88
14383;BME280;7275;50.328;8.720;2022-09-09T02:58:32;99156.72;;;21.42;49.93
14383;BME280;7275;50.328;8.720;2022-09-09T03:01:00;99164.53;;;21.45;49.57
14383;BME280;7275;50.328;8.720;2022-09-09T03:03:31;99153.50;;;21.48;49.94
14383;BME280;7275;50.328;8.720;2022-09-09T03:05:58;99158.72;;;21.50;49.71
14383;BME280;7275;50.328;8.720;2022-09-09T03:08:26;99164.69;;;21.54;49.73
14383;BME280;7275;50.328;8.720;2022-09-09T03:10:54;99156.34;;;21.57;49.63
14383;BME280;7275;50.328;8.720;2022-09-09T03:13:22;99157.88;;;21.59;49.95
14383;BME280;7275;50.328;8.720;2022-09-09T03:15:49;99155.19;;;21.59;49.58
14383;BME280;7275;50.328;8.720;2022-09-09T03:18:17;99145.59;;;21.57;49.97
14383;BME280;7275;50.328;8.720;2022-09-09T03:20:47;99142.03;;;21.56;49.70
14383;BME280;7275;50.328;8.720;2022-09-09T03:23:14;99150.25;;;21.55;49.82
14383;BME280;7275;50.328;8.720;2022-09-09T03:25:46;99146.97;;;21.51;49.81
14383;BME280;7275;50.328;8.720;2022-09-09T03:28:14;99134.94;;;21.45;49.92
14383;BME280;7275;50.328;8.720;2022-09-09T03:30:41;99136.78;;;21.45;49.98
14383;BME280;7275;50.328;8.720;2022-09-09T03:33:09;99136.91;;;21.43;50.02
14383;BME280;7275;50.328;8.720;2022-09-09T03:35:36;99136.91;;;21.43;49.96
14383;BME280;7275;50.328;8.720;2022-09-09T03:38:05;99133.38;;;21.43;50.14
14383;BME280;7275;50.328;8.720;2022-09-09T03:40:33;99142.44;;;21.42;50.05
14383;BME280;7275;50.328;8.720;2022-09-09T03:43:01;99145.97;;;21.42;50.21
14383;BME280;7275;50.328;8.720;2022-09-09T03:45:28;99145.13;;;21.42;50.29
14383;BME280;7275;50.328;8.720;2022-09-09T03:47:56;99136.34;;;21.40;50.28
14383;BME280;7275;50.328;8.720;2022-09-09T03:50:24;99140.88;;;21.39;50.42
14383;BME280;7275;50.328;8.720;2022-09-09T03:52:51;99143.72;;;21.38;50.35
14383;BME280;7275;50.328;8.720;2022-09-09T03:55:20;99143.72;;;21.38;50.72
14383;BME280;7275;50.328;8.720;2022-09-09T03:57:47;99143.00;;;21.36;50.54
14383;BME280;7275;50.328;8.720;2022-09-09T04:00:15;99144.84;;;21.35;50.73
14383;BME280;7275;50.328;8.720;2022-09-09T04:02:43;99147.53;;;21.35;50.74
14383;BME280;7275;50.328;8.720;2022-09-09T04:05:12;99145.81;;;21.34;50.63
14383;BME280;7275;50.328;8.720;2022-09-09T04:07:40;99146.94;;;21.32;50.61
14383;BME280;7275;50.328;8.720;2022-09-09T04:10:08;99148.66;;;21.33;50.68
14383;BME280;7275;50.328;8.720;2022-09-09T04:12:37;99151.34;;;21.33;50.91
14383;BME280;7275;50.328;8.720;2022-09-09T04:15:05;99139.59;;;21.34;50.75
14383;BME280;7275;50.328;8.720;2022-09-09T04:17:33;99130.94;;;21.30;50.80
14383;BME280;7275;50.328;8.720;2022-09-09T04:20:00;99133.47;;;21.32;50.87
14383;BME280;7275;50.328;8.720;2022-09-09T04:22:28;99132.34;;;21.34;50.62
14383;BME280;7275;50.328;8.720;2022-09-09T04:24:56;99142.16;;;21.35;50.89
14383;BME280;7275;50.328;8.720;2022-09-09T04:27:23;99129.41;;;21.37;50.75
14383;BME280;7275;50.328;8.720;2022-09-09T04:29:52;99122.91;;;21.40;50.54
14383;BME280;7275;50.328;8.720;2022-09-09T04:32:19;99129.81;;;21.42;50.65
14383;BME280;7275;50.328;8.720;2022-09-09T04:34:47;99128.69;;;21.45;50.64
14383;BME280;7275;50.328;8.720;2022-09-09T04:37:14;99130.13;;;21.49;50.48
14383;BME280;7275;50.328;8.720;2022-09-09T04:39:42;99128.13;;;21.51;50.52
14383;BME280;7275;50.328;8.720;2022-09-09T04:42:11;99134.94;;;21.55;50.69
14383;BME280;7275;50.328;8.720;2022-09-09T04:44:39;99130.28;;;21.57;50.35
14383;BME280;7275;50.328;8.720;2022-09-09T04:47:08;99126.31;;;21.61;50.70
14383;BME280;7275;50.328;8.720;2022-09-09T04:49:35;99127.03;;;21.63;50.44
14383;BME280;7275;50.328;8.720;2022-09-09T04:52:03;99129.44;;;21.66;50.60
14383;BME280;7275;50.328;8.720;2022-09-09T04:54:31;99130.16;;;21.68;50.28
14383;BME280;7275;50.328;8.720;2022-09-09T04:56:58;99128.31;;;21.69;50.37
14383;BME280;7275;50.328;8.720;2022-09-09T04:59:25;99132.56;;;21.71;50.34
14383;BME280;7275;50.328;8.720;2022-09-09T05:01:53;99133.28;;;21.73;50.29
14383;BME280;7275;50.328;8.720;2022-09-09T05:04:22;99133.13;;;21.75;50.28
14383;BME280;7275;50.328;8.720;2022-09-09T05:06:50;99148.16;;;21.77;50.20
14383;BME280;7275;50.328;8.720;2022-09-09T05:09:17;99155.22;;;21.78;50.18
14383;BME280;7275;50.328;8.720;2022-09-09T05:11:45;99155.09;;;21.80;50.32
14383;BME280;7275;50.328;8.720;2022-09-09T05:14:12;99157.63;;;21.81;50.42
14383;BME280;7275;50.328;8.720;2022-09-09T05:16:41;99156.53;;;21.84;50.29
14383;BME280;7275;50.328;8.720;2022-09-09T05:19:10;99159.09;;;21.85;50.40
14383;BME280;7275;50.328;8.720;2022-09-09T05:21:39;99160.75;;;21.86;50.42
14383;BME280;7275;50.328;8.720;2022-09-09T05:24:07;99159.63;;;21.89;50.32
14383;BME280;7275;50.328;8.720;2022-09-09T05:26:35;99158.78;;;21.88;50.02
14383;BME280;7275;50.328;8.720;2022-09-09T05:29:02;99165.03;;;21.89;50.42
14383;BME280;7275;50.328;8.720;2022-09-09T05:31:30;99173.97;;;21.89;50.09
14383;BME280;7275;50.328;8.720;2022-09-09T05:33:59;99190.97;;;21.90;50.30
14383;BME280;7275;50.328;8.720;2022-09-09T05:36:26;99194.63;;;21.89;50.46
14383;BME280;7275;50.328;8.720;2022-09-09T05:38:55;99187.69;;;21.86;50.38
14383;BME280;7275;50.328;8.720;2022-09-09T05:41:22;99189.66;;;21.84;50.49
14383;BME280;7275;50.328;8.720;2022-09-09T05:43:50;99186.16;;;21.84;50.38
14383;BME280;7275;50.328;8.720;2022-09-09T05:46:18;99187.13;;;21.83;50.62
14383;BME280;7275;50.328;8.720;2022-09-09T05:48:47;99198.91;;;21.82;50.77
14383;BME280;7275;50.328;8.720;2022-09-09T05:51:18;99197.16;;;21.81;50.71
14383;BME280;7275;50.328;8.720;2022-09-09T05:53:47;99203.38;;;21.81;50.75
14383;BME280;7275;50.328;8.720;2022-09-09T05:56:17;99202.53;;;21.81;50.70
14383;BME280;7275;50.328;8.720;2022-09-09T05:58:46;99207.69;;;21.84;50.86
14383;BME280;7275;50.328;8.720;2022-09-09T06:01:16;99212.91;;;21.85;50.81
14383;BME280;7275;50.328;8.720;2022-09-09T06:03:46;99209.91;;;21.88;51.07
14383;BME280;7275;50.328;8.720;2022-09-09T06:06:15;99208.09;;;21.89;50.84
14383;BME280;7275;50.328;8.720;2022-09-09T06:08:44;99210.50;;;21.92;50.68
14383;BME280;7275;50.328;8.720;2022-09-09T06:11:14;99203.41;;;21.91;50.60
14383;BME280;7275;50.328;8.720;2022-09-09T06:13:44;99205.28;;;21.90;51.01
14383;BME280;7275;50.328;8.720;2022-09-09T06:16:13;99222.25;;;21.91;50.87
14383;BME280;7275;50.328;8.720;2022-09-09T06:18:42;99220.41;;;21.91;50.94
14383;BME280;7275;50.328;8.720;2022-09-09T06:21:14;99205.13;;;21.92;51.19
14383;BME280;7275;50.328;8.720;2022-09-09T06:23:42;99203.16;;;21.94;51.21
14383;BME280;7275;50.328;8.720;2022-09-09T06:26:13;99211.63;;;21.99;50.85
14383;BME280;7275;50.328;8.720;2022-09-09T06:28:40;99221.13;;;22.03;51.21
14383;BME280;7275;50.328;8.720;2022-09-09T06:31:11;99217.31;;;22.05;51.05
14383;BME280;7275;50.328;8.720;2022-09-09T06:33:41;99221.41;;;22.09;50.60
14383;BME280;7275;50.328;8.720;2022-09-09T06:36:11;99220.28;;;22.12;51.24
14383;BME280;7275;50.328;8.720;2022-09-09T06:38:40;99213.63;;;22.16;51.29
14383;BME280;7275;50.328;8.720;2022-09-09T06:41:09;99227.38;;;22.22;51.33
14383;BME280;7275;50.328;8.720;2022-09-09T06:43:36;99230.50;;;22.27;50.83
14383;BME280;7275;50.328;8.720;2022-09-09T06:46:06;99216.91;;;22.29;50.94
14383;BME280;7275;50.328;8.720;2022-09-09T06:48:36;99220.13;;;22.33;50.99
14383;BME280;7275;50.328;8.720;2022-09-09T06:51:05;99227.09;;;22.35;50.85
14383;BME280;7275;50.328;8.720;2022-09-09T06:53:34;99227.38;;;22.42;50.92
14383;BME280;7275;50.328;8.720;2022-09-09T06:56:02;99223.94;;;22.49;51.29
14383;BME280;7275;50.328;8.720;2022-09-09T06:58:43;99231.44;;;22.55;50.84
14383;BME280;7275;50.328;8.720;2022-09-09T07:01:13;99224.81;;;22.59;51.10
14383;BME280;7275;50.328;8.720;2022-09-09T07:03:44;99238.44;;;22.67;50.93
14383;BME280;7275;50.328;8.720;2022-09-09T07:06:14;99232.75;;;22.70;51.00
14383;BME280;7275;50.328;8.720;2022-09-09T07:08:43;99232.47;;;22.73;50.86
14383;BME280;7275;50.328;8.720;2022-09-09T07:11:23;99232.16;;;22.76;50.56
14383;BME280;7275;50.328;8.720;2022-09-09T07:13:52;99233.72;;;22.79;50.84
14383;BME280;7275;50.328;8.720;2022-09-09T07:16:20;99232.59;;;22.81;50.65
14383;BME280;7275;50.328;8.720;2022-09-09T07:18:51;99230.59;;;22.83;50.68
14383;BME280;7275;50.328;8.720;2022-09-09T07:21:21;99224.78;;;22.88;50.74
14383;BME280;7275;50.328;8.720;2022-09-09T07:23:48;99228.03;;;22.91;50.61
14383;BME280;7275;50.328;8.720;2022-09-09T07:26:19;99212.38;;;22.95;50.64
14383;BME280;7275;50.328;8.720;2022-09-09T07:28:47;99221.59;;;23.02;50.91
14383;BME280;7275;50.328;8.720;2022-09-09T07:31:16;99223.88;;;23.07;50.71
14383;BME280;7275;50.328;8.720;2022-09-09T07:33:44;99224.41;;;23.10;50.62
14383;BME280;7275;50.328;8.720;2022-09-09T07:36:15;99231.19;;;23.14;50.27
14383;BME280;7275;50.328;8.720;2022-09-09T07:38:45;99229.03;;;23.18;50.54
14383;BME280;7275;50.328;8.720;2022-09-09T07:41:15;99224.22;;;23.21;50.66
14383;BME280;7275;50.328;8.720;2022-09-09T07:43:44;99238.81;;;23.28;50.57
14383;BME280;7275;50.328;8.720;2022-09-09T07:46:13;99232.28;;;23.31;50.17
14383;BME280;7275;50.328;8.720;2022-09-09T07:48:44;99234.84;;;23.32;50.20
14383;BME280;7275;50.328;8.720;2022-09-09T07:51:14;99233.69;;;23.35;50.40
14383;BME280;7275;50.328;8.720;2022-09-09T07:53:44;99236.41;;;23.35;49.97
14383;BME280;7275;50.328;8.720;2022-09-09T07:56:14;99239.94;;;23.35;50.17
14383;BME280;7275;50.328;8.720;2022-09-09T07:58:45;99240.66;;;23.37;50.30
14383;BME280;7275;50.328;8.720;2022-09-09T08:01:15;99231.56;;;23.38;50.34
14383;BME280;7275;50.328;8.720;2022-09-09T08:03:44;99242.22;;;23.40;50.28
14383;BME280;7275;50.328;8.720;2022-09-09T08:06:14;99251.88;;;23.42;50.26
14383;BME280;7275;50.328;8.720;2022-09-09T08:08:41;99249.00;;;23.44;50.16
14383;BME280;7275;50.328;8.720;2022-09-09T08:11:11;99253.09;;;23.48;50.09
14383;BME280;7275;50.328;8.720;2022-09-09T08:13:41;99255.34;;;23.52;49.62
14383;BME280;7275;50.328;8.720;2022-09-09T08:16:11;99257.63;;;23.57;49.72
14383;BME280;7275;50.328;8.720;2022-09-09T08:18:39;99267.94;;;23.61;49.39
14383;BME280;7275;50.328;8.720;2022-09-09T08:21:08;99263.97;;;23.65;49.40
14383;BME280;7275;50.328;8.720;2022-09-09T08:23:40;99262.50;;;23.71;49.41
14383;BME280;7275;50.328;8.720;2022-09-09T08:26:10;99262.75;;;23.77;49.40
14383;BME280;7275;50.328;8.720;2022-09-09T08:28:39;99259.72;;;23.80;49.19
14383;BME280;7275;50.328;8.720;2022-09-09T08:31:08;99267.72;;;23.82;49.04
14383;BME280;7275;50.328;8.720;2022-09-09T08:33:36;99267.53;;;23.83;49.11
14383;BME280;7275;50.328;8.720;2022-09-09T08:36:05;99284.59;;;23.84;48.90
14383;BME280;7275;50.328;8.720;2022-09-09T08:38:35;99269.91;;;23.87;49.12
14383;BME280;7275;50.328;8.720;2022-09-09T08:41:28;99276.59;;;23.92;49.18
14383;BME280;7275;50.328;8.720;2022-09-09T08:44:02;99267.72;;;24.00;48.86
14383;BME280;7275;50.328;8.720;2022-09-09T08:46:39;99258.56;;;24.10;48.78
14383;BME280;7275;50.328;8.720;2022-09-09T08:49:22;99260.97;;;24.31;48.74
14383;BME280;7275;50.328;8.720;2022-09-09T08:51:54;99265.69;;;24.46;48.47
14383;BME280;7275;50.328;8.720;2022-09-09T08:54:25;99251.63;;;24.60;48.12
14383;BME280;7275;50.328;8.720;2022-09-09T08:57:20;99266.34;;;24.66;48.11
14383;BME280;7275;50.328;8.720;2022-09-09T08:59:50;99258.09;;;24.68;47.77
14383;BME280;7275;50.328;8.720;2022-09-09T09:02:23;99265.53;;;24.66;47.70
14383;BME280;7275;50.328;8.720;2022-09-09T09:05:00;99273.78;;;24.64;47.51
14383;BME280;7275;50.328;8.720;2022-09-09T09:07:42;99284.91;;;24.61;47.44
14383;BME280;7275;50.328;8.720;2022-09-09T09:10:24;99276.56;;;24.54;47.64
14383;BME280;7275;50.328;8.720;2022-09-09T09:13:12;99270.53;;;24.43;47.19
14383;BME280;7275;50.328;8.720;2022-09-09T09:15:43;99266.78;;;24.36;47.52
14383;BME280;7275;50.328;8.720;2022-09-09T09:18:12;99284.75;;;24.27;47.54
14383;BME280;7275;50.328;8.720;2022-09-09T09:20:49;99293.78;;;24.18;47.81
14383;BME280;7275;50.328;8.720;2022-09-09T09:23:22;99298.72;;;24.05;48.10
14383;BME280;7275;50.328;8.720;2022-09-09T09:25:52;99304.66;;;23.81;48.64
14383;BME280;7275;50.328;8.720;2022-09-09T09:28:27;99296.53;;;23.54;49.21
14383;BME280;7275;50.328;8.720;2022-09-09T09:30:58;99280.81;;;23.31;49.22
14383;BME280;7275;50.328;8.720;2022-09-09T09:33:32;99280.06;;;23.11;49.63
14383;BME280;7275;50.328;8.720;2022-09-09T09:36:02;99279.66;;;22.96;50.13
14383;BME280;7275;50.328;8.720;2022-09-09T09:38:35;99281.38;;;22.88;50.33
14383;BME280;7275;50.328;8.720;2022-09-09T09:41:31;99276.84;;;22.79;50.63
14383;BME280;7275;50.328;8.720;2022-09-09T09:44:02;99287.94;;;22.76;50.46
14383;BME280;7275;50.328;8.720;2022-09-09T09:46:31;99278.28;;;22.73;50.29
14383;BME280;7275;50.328;8.720;2022-09-09T09:49:00;99273.88;;;22.72;50.45
14383;BME280;7275;50.328;8.720;2022-09-09T09:51:29;99273.72;;;22.74;50.32
14383;BME280;7275;50.328;8.720;2022-09-09T09:54:08;99278.56;;;22.80;50.54
14383;BME280;7275;50.328;8.720;2022-09-09T09:56:36;99275.84;;;22.89;50.29
14383;BME280;7275;50.328;8.720;2022-09-09T09:59:05;99274.81;;;23.00;50.28
14383;BME280;7275;50.328;8.720;2022-09-09T10:02:19;99275.94;;;23.07;49.96
14383;BME280;7275;50.328;8.720;2022-09-09T10:04:47;99268.81;;;23.16;49.90
14383;BME280;7275;50.328;8.720;2022-09-09T10:07:18;99251.03;;;23.23;49.86
14383;BME280;7275;50.328;8.720;2022-09-09T10:09:47;99253.09;;;23.48;49.75
14383;BME280;7275;50.328;8.720;2022-09-09T10:12:26;99255.72;;;23.84;49.83
14383;BME280;7275;50.328;8.720;2022-09-09T10:15:02;99263.53;;;24.15;49.00
14383;BME280;7275;50.328;8.720;2022-09-09T10:17:40;99258.03;;;24.24;48.72
14383;BME280;7275;50.328;8.720;2022-09-09T10:20:22;99264.31;;;24.25;48.67
14383;BME280;7275;50.328;8.720;2022-09-09T10:23:06;99252.97;;;24.21;48.73
14383;BME280;7275;50.328;8.720;2022-09-09T10:25:53;99257.34;;;24.22;48.78
14383;BME280;7275;50.328;8.720;2022-09-09T10:28:41;99253.41;;;24.17;48.94
14383;BME280;7275;50.328;8.720;2022-09-09T10:31:19;99259.44;;;24.11;48.83
14383;BME280;7275;50.328;8.720;2022-09-09T10:33:51;99273.56;;;24.05;49.07
14383;BME280;7275;50.328;8.720;2022-09-09T10:36:24;99251.81;;;24.24;49.47
14383;BME280;7275;50.328;8.720;2022-09-09T10:38:54;99241.53;;;25.14;49.55
14383;BME280;7275;50.328;8.720;2022-09-09T10:41:35;99242.19;;;26.41;48.78
14383;BME280;7275;50.328;8.720;2022-09-09T10:44:34;99237.84;;;27.51;47.67
14383;BME280;7275;50.328;8.720;2022-09-09T10:47:20;99237.06;;;28.35;46.04
14383;BME280;7275;50.328;8.720;2022-09-09T10:50:07;99236.34;;;28.64;45.04
14383;BME280;7275;50.328;8.720;2022-09-09T10:52:44;99244.59;;;28.47;44.82
14383;BME280;7275;50.328;8.720;2022-09-09T10:55:18;99248.22;;;28.17;44.71
14383;BME280;7275;50.328;8.720;2022-09-09T10:57:48;99233.72;;;28.25;44.61
14383;BME280;7275;50.328;8.720;2022-09-09T11:00:20;99229.38;;;28.98;44.50
14383;BME280;7275;50.328;8.720;2022-09-09T11:02:52;99225.16;;;29.98;43.42
14383;BME280;7275;50.328;8.720;2022-09-09T11:05:27;99227.28;;;31.02;42.00
14383;BME280;7275;50.328;8.720;2022-09-09T11:07:58;99217.44;;;31.82;40.86
14383;BME280;7275;50.328;8.720;2022-09-09T11:10:36;99212.44;;;32.72;39.63
14383;BME280;7275;50.328;8.720;2022-09-09T11:13:14;99217.19;;;33.49;38.43
14383;BME280;7275;50.328;8.720;2022-09-09T11:15:46;99214.50;;;34.06;37.62
14383;BME280;7275;50.328;8.720;2022-09-09T11:18:20;99217.41;;;34.74;36.68
14383;BME280;7275;50.328;8.720;2022-09-09T11:20:51;99213.09;;;35.33;35.96
14383;BME280;7275;50.328;8.720;2022-09-09T11:23:25;99216.66;;;35.16;35.15
14383;BME280;7275;50.328;8.720;2022-09-09T11:25:56;99221.41;;;34.46;35.59
14383;BME280;7275;50.328;8.720;2022-09-09T11:28:34;99214.22;;;33.63;35.34
14383;BME280;7275;50.328;8.720;2022-09-09T11:31:20;99217.47;;;32.75;36.09
14383;BME280;7275;50.328;8.720;2022-09-09T11:34:00;99225.31;;;31.98;36.80
14383;BME280;7275;50.328;8.720;2022-09-09T11:36:47;99218.22;;;31.29;37.88
14383;BME280;7275;50.328;8.720;2022-09-09T11:39:36;99211.22;;;30.71;38.33
14383;BME280;7275;50.328;8.720;2022-09-09T11:42:06;99221.28;;;30.28;38.64
14383;BME280;7275;50.328;8.720;2022-09-09T11:44:34;99215.22;;;29.90;39.30
14383;BME280;7275;50.328;8.720;2022-09-09T11:47:03;99220.53;;;30.34;39.34
14383;BME280;7275;50.328;8.720;2022-09-09T11:49:41;99201.28;;;31.46;38.69
14383;BME280;7275;50.328;8.720;2022-09-09T11:52:18;99203.22;;;31.93;38.06
14383;BME280;7275;50.328;8.720;2022-09-09T11:54:48;99205.44;;;31.77;37.35
14383;BME280;7275;50.328;8.720;2022-09-09T11:57:24;99218.00;;;31.30;37.44
14383;BME280;7275;50.328;8.720;2022-09-09T11:59:52;99206.34;;;30.88;37.38
14383;BME280;7275;50.328;8.720;2022-09-09T12:02:23;99218.97;;;30.46;37.77
14383;BME280;7275;50.328;8.720;2022-09-09T12:04:59;99208.88;;;30.05;37.98
14383;BME280;7275;50.328;8.720;2022-09-09T12:07:36;99209.22;;;29.66;38.19
14383;BME280;7275;50.328;8.720;2022-09-09T12:10:20;99216.88;;;29.27;38.94
14383;BME280;7275;50.328;8.720;2022-09-09T12:12:49;99219.91;;;28.94;39.12
14383;BME280;7275;50.328;8.720;2022-09-09T12:15:25;99212.13;;;28.69;39.96
14383;BME280;7275;50.328;8.720;2022-09-09T12:17:56;99203.78;;;28.47;40.52
14383;BME280;7275;50.328;8.720;2022-09-09T12:20:34;99206.84;;;28.30;40.64
14383;BME280;7275;50.328;8.720;2022-09-09T12:23:35;99215.13;;;28.14;40.87
14383;BME280;7275;50.328;8.720;2022-09-09T12:26:20;99206.50;;;28.02;41.53
14383;BME280;7275;50.328;8.720;2022-09-09T12:28:56;99210.97;;;27.95;41.66
14383;BME280;7275;50.328;8.720;2022-09-09T12:31:30;99215.41;;;27.88;41.56
14383;BME280;7275;50.328;8.720;2022-09-09T12:34:09;99212.56;;;27.82;40.94
14383;BME280;7275;50.328;8.720;2022-09-09T12:36:39;99207.66;;;27.77;40.79
14383;BME280;7275;50.328;8.720;2022-09-09T12:39:17;99214.94;;;27.85;40.24
14383;BME280;7275;50.328;8.720;2022-09-09T12:41:53;99200.44;;;27.92;39.54
14383;BME280;7275;50.328;8.720;2022-09-09T12:44:24;99193.13;;;27.93;39.59
14383;BME280;7275;50.328;8.720;2022-09-09T12:46:52;99186.38;;;27.89;39.04
14383;BME280;7275;50.328;8.720;2022-09-09T12:49:26;99195.91;;;27.85;39.43
14383;BME280;7275;50.328;8.720;2022-09-09T12:51:57;99198.50;;;27.78;39.20
14383;BME280;7275;50.328;8.720;2022-09-09T12:54:24;99195.44;;;27.73;39.35
14383;BME280;7275;50.328;8.720;2022-09-09T12:56:52;99192.22;;;27.78;39.36
14383;BME280;7275;50.328;8.720;2022-09-09T12:59:23;99189.38;;;27.94;38.98
14383;BME280;7275;50.328;8.720;2022-09-09T13:01:58;99187.06;;;28.36;39.11
14383;BME280;7275;50.328;8.720;2022-09-09T13:04:26;99185.34;;;28.80;39.12
14383;BME280;7275;50.328;8.720;2022-09-09T13:06:53;99183.09;;;29.13;38.10
14383;BME280;7275;50.328;8.720;2022-09-09T13:09:22;99191.59;;;29.18;37.58
14383;BME280;7275;50.328;8.720;2022-09-09T13:11:53;99188.94;;;29.10;37.63
14383;BME280;7275;50.328;8.720;2022-09-09T13:14:28;99192.13;;;28.99;37.40
14383;BME280;7275;50.328;8.720;2022-09-09T13:17:00;99206.75;;;28.98;37.69
14383;BME280;7275;50.328;8.720;2022-09-09T13:19:29;99203.44;;;28.88;36.76
14383;BME280;7275;50.328;8.720;2022-09-09T13:21:58;99192.72;;;29.23;36.49
14383;BME280;7275;50.328;8.720;2022-09-09T13:24:32;99191.94;;;29.59;35.69
14383;BME280;7275;50.328;8.720;2022-09-09T13:27:01;99182.63;;;30.39;35.94
14383;BME280;7275;50.328;8.720;2022-09-09T13:29:30;99178.38;;;31.41;34.13
14383;BME280;7275;50.328;8.720;2022-09-09T13:32:04;99174.25;;;32.45;33.68
14383;BME280;7275;50.328;8.720;2022-09-09T13:34:33;99183.28;;;33.37;32.88
14383;BME280;7275;50.328;8.720;2022-09-09T13:37:03;99163.81;;;34.09;31.35
14383;BME280;7275;50.328;8.720;2022-09-09T13:39:34;99159.38;;;34.39;31.46
14383;BME280;7275;50.328;8.720;2022-09-09T13:42:04;99156.47;;;33.96;31.53